Time;durP1;ratioP1;P1;durP2;ratioP2;P2;SDS_P1;SDS_P2;PMS_P1;PMS_P2;Temp;Humidity;BMP_temperature;BMP_pressure;BME280_temperature;BME280_humidity;BME280_pressure;Samples;Min_cycle;Max_cycle;Signal;HPM_P1;HPM_P2
2022/01/25 00:27:01;;;;;;;;;;;2.20;99.90;;;;;;4974124;28;19941;-79
2022/01/25 00:32:12;;;;;;;;;;;2.10;99.90;;;;;;4971036;28;20058;-79
2022/01/25 00:34:38;;;;;;;;;;;2.10;99.90;;;;;;4967501;28;20379;-80
2022/01/25 00:37:04;;;;;;;;;;;2.20;99.90;;;;;;4972355;28;19930;-79
2022/01/25 00:39:29;;;;;;;;;;;2.20;99.90;;;;;;4955788;28;19921;-80
2022/01/25 00:41:55;;;;;;;;;;;2.20;99.90;;;;;;4957683;28;19926;-80
2022/01/25 00:44:21;;;;;;;;;;;2.20;99.90;;;;;;4969334;28;19973;-79
2022/01/25 00:46:47;;;;;;;;;;;2.20;99.90;;;;;;4971332;28;20406;-80
2022/01/25 00:49:20;;;;;;;;;;;2.20;99.90;;;;;;4951899;29;19915;-79
2022/01/25 00:54:29;;;;;;;;;;;2.20;99.90;;;;;;4965900;28;20010;-80
2022/01/25 00:56:56;;;;;;;;;;;2.30;99.90;;;;;;4969080;28;20339;-80
2022/01/25 00:59:23;;;;;;;;;;;2.30;99.90;;;;;;4973099;28;19950;-80
2022/01/25 01:01:49;;;;;;;;;;;2.20;99.90;;;;;;4964387;28;19918;-79
2022/01/25 01:04:15;;;;;;;;;;;2.20;99.90;;;;;;4948600;28;19946;-79
2022/01/25 01:06:43;;;;;;;;;;;2.30;99.90;;;;;;4971322;28;20618;-80
2022/01/25 01:09:10;;;;;;;;;;;2.30;99.90;;;;;;4970739;28;20328;-79
2022/01/25 01:11:42;;;;;;;;;;;2.30;99.90;;;;;;4968594;28;19917;-80
2022/01/25 01:14:49;;;;;;;;;;;2.20;99.90;;;;;;4954077;28;19972;-79
2022/01/25 01:31:27;;;;;;;;;;;2.20;99.90;;;;;;4952082;29;19949;-80
2022/01/25 01:43:45;;;;;;;;;;;2.30;99.90;;;;;;4967891;28;19926;-79
2022/01/25 01:49:01;;;;;;;;;;;2.20;99.90;;;;;;4971215;28;19918;-79
2022/01/25 01:51:31;;;;;;;;;;;2.20;99.90;;;;;;4968253;28;19914;-79
2022/01/25 01:54:17;;;;;;;;;;;2.20;99.90;;;;;;4985742;28;19936;-79
2022/01/25 01:56:43;;;;;;;;;;;2.20;99.90;;;;;;4969203;28;19946;-79
2022/01/25 01:59:11;;;;;;;;;;;2.30;99.90;;;;;;4968537;28;19922;-79
2022/01/25 02:01:37;;;;;;;;;;;2.20;99.90;;;;;;4960652;28;19922;-80
2022/01/25 02:04:04;;;;;;;;;;;2.20;99.90;;;;;;4954631;28;20301;-80
2022/01/25 02:06:29;;;;;;;;;;;2.20;99.90;;;;;;4970704;28;19921;-79
2022/01/25 02:08:55;;;;;;;;;;;2.30;99.90;;;;;;4964300;28;19919;-79
2022/01/25 02:11:21;;;;;;;;;;;2.20;99.90;;;;;;4951826;29;19914;-80
2022/01/25 02:13:47;;;;;;;;;;;2.20;99.90;;;;;;4968297;28;19921;-79
2022/01/25 02:16:39;;;;;;;;;;;2.20;99.90;;;;;;4968850;28;19918;-79
2022/01/25 02:24:35;;;;;;;;;;;2.20;99.90;;;;;;4970910;28;19918;-80
2022/01/25 02:27:01;;;;;;;;;;;2.20;99.90;;;;;;4967479;28;19917;-80
2022/01/25 02:29:27;;;;;;;;;;;2.30;99.90;;;;;;4966715;28;19920;-79
2022/01/25 02:31:53;;;;;;;;;;;2.20;99.90;;;;;;4951543;29;20418;-79
2022/01/25 02:34:19;;;;;;;;;;;2.10;99.90;;;;;;4960389;28;19914;-79
2022/01/25 02:36:45;;;;;;;;;;;2.10;99.90;;;;;;4952059;28;19968;-79
2022/01/25 02:39:10;;;;;;;;;;;2.10;99.90;;;;;;4977176;28;19918;-79
2022/01/25 02:41:37;;;;;;;;;;;2.10;99.90;;;;;;4957104;28;19918;-79
2022/01/25 02:44:05;;;;;;;;;;;2.10;99.90;;;;;;4967230;28;19921;-79
2022/01/25 02:48:56;;;;;;;;;;;2.10;99.90;;;;;;4968324;28;20020;-79
2022/01/25 02:51:33;;;;;;;;;;;2.10;99.90;;;;;;4942520;29;19917;-79
2022/01/25 02:53:59;;;;;;;;;;;2.10;99.90;;;;;;4969675;28;20607;-80
2022/01/25 02:56:25;;;;;;;;;;;2.10;99.90;;;;;;4966400;28;19965;-79
2022/01/25 02:58:51;;;;;;;;;;;2.20;99.90;;;;;;4947575;28;19977;-80
2022/01/25 03:01:16;;;;;;;;;;;2.20;99.90;;;;;;4946874;29;19919;-79
2022/01/25 03:03:42;;;;;;;;;;;2.20;99.90;;;;;;4967556;28;20377;-79
2022/01/25 03:06:08;;;;;;;;;;;2.10;99.90;;;;;;4950847;29;20336;-80
2022/01/25 03:08:34;;;;;;;;;;;2.10;99.90;;;;;;4953254;28;20291;-79
2022/01/25 03:11:00;;;;;;;;;;;2.10;99.90;;;;;;4965265;28;19922;-80
2022/01/25 03:13:32;;;;;;;;;;;2.10;99.90;;;;;;4969531;28;20001;-79
2022/01/25 03:16:05;;;;;;;;;;;2.10;99.90;;;;;;4969973;28;19918;-79
2022/01/25 03:21:16;;;;;;;;;;;2.00;99.90;;;;;;4970341;28;19961;-79
2022/01/25 03:23:45;;;;;;;;;;;2.00;99.90;;;;;;4970345;28;20009;-79
2022/01/25 03:26:11;;;;;;;;;;;2.00;99.90;;;;;;4954925;28;19919;-80
2022/01/25 03:28:36;;;;;;;;;;;2.00;99.90;;;;;;4973493;28;19937;-80
2022/01/25 03:31:02;;;;;;;;;;;2.00;99.90;;;;;;4957494;28;19918;-79
2022/01/25 03:33:28;;;;;;;;;;;2.00;99.90;;;;;;4972892;28;20020;-80
2022/01/25 03:35:53;;;;;;;;;;;2.00;99.90;;;;;;4971144;28;19949;-79
2022/01/25 03:38:19;;;;;;;;;;;2.10;99.90;;;;;;4969962;28;19922;-79
2022/01/25 03:40:45;;;;;;;;;;;2.10;99.90;;;;;;4968639;28;19918;-79
2022/01/25 03:43:13;;;;;;;;;;;2.10;99.90;;;;;;4974998;28;19914;-79
2022/01/25 03:45:42;;;;;;;;;;;2.10;99.90;;;;;;4953969;28;20389;-79
2022/01/25 03:50:36;;;;;;;;;;;2.10;99.90;;;;;;4972829;28;19926;-79
2022/01/25 03:53:02;;;;;;;;;;;2.10;99.90;;;;;;4973393;28;20008;-79
2022/01/25 03:55:28;;;;;;;;;;;2.20;99.90;;;;;;4956977;28;20009;-80
2022/01/25 03:57:53;;;;;;;;;;;2.20;99.90;;;;;;4972397;28;20004;-79
2022/01/25 04:00:19;;;;;;;;;;;2.10;99.90;;;;;;4956709;28;19922;-79
2022/01/25 04:02:56;;;;;;;;;;;2.10;99.90;;;;;;4974735;28;19918;-79
2022/01/25 04:05:33;;;;;;;;;;;2.10;99.90;;;;;;4955205;28;19922;-79
2022/01/25 04:07:58;;;;;;;;;;;2.10;99.90;;;;;;4972163;28;19957;-80
2022/01/25 04:10:24;;;;;;;;;;;2.00;99.90;;;;;;4972702;28;19957;-80
2022/01/25 04:12:50;;;;;;;;;;;2.10;99.90;;;;;;4973055;28;19918;-80
2022/01/25 04:15:16;;;;;;;;;;;2.00;99.90;;;;;;4956772;28;19981;-79
2022/01/25 04:17:46;;;;;;;;;;;2.00;99.90;;;;;;4972541;28;19976;-79
2022/01/25 04:20:20;;;;;;;;;;;2.00;99.90;;;;;;4956327;28;19914;-80
2022/01/25 04:25:30;;;;;;;;;;;2.00;99.90;;;;;;4955262;28;19946;-80
2022/01/25 04:27:56;;;;;;;;;;;2.10;99.90;;;;;;4979478;28;19961;-80
2022/01/25 04:30:22;;;;;;;;;;;2.00;99.90;;;;;;4971854;28;20355;-79
2022/01/25 04:32:52;;;;;;;;;;;2.00;99.90;;;;;;4972786;28;20435;-79
2022/01/25 04:49:20;;;;;;;;;;;2.00;99.90;;;;;;4970788;28;20017;-79
2022/01/25 04:52:01;;;;;;;;;;;2.00;99.90;;;;;;4926544;29;19918;-79
2022/01/25 05:02:12;;;;;;;;;;;2.00;99.90;;;;;;4970508;28;19918;-79
2022/01/25 05:04:44;;;;;;;;;;;2.00;99.90;;;;;;4956059;28;20381;-80
2022/01/25 05:07:30;;;;;;;;;;;2.00;99.90;;;;;;4945988;29;20369;-79
2022/01/25 05:09:57;;;;;;;;;;;2.00;99.90;;;;;;4952032;28;19922;-79
2022/01/25 05:12:34;;;;;;;;;;;2.00;99.90;;;;;;4936233;28;19926;-79
2022/01/25 05:15:06;;;;;;;;;;;2.00;99.90;;;;;;4971354;28;19985;-79
2022/01/25 05:17:39;;;;;;;;;;;2.00;99.90;;;;;;4953810;28;19976;-79
2022/01/25 05:22:51;;;;;;;;;;;2.00;99.90;;;;;;4953036;28;20337;-79
2022/01/25 05:25:17;;;;;;;;;;;2.00;99.90;;;;;;4949279;28;20297;-79
2022/01/25 05:27:42;;;;;;;;;;;2.00;99.90;;;;;;4971133;28;19921;-80
2022/01/25 05:30:08;;;;;;;;;;;2.00;99.90;;;;;;4971298;28;19921;-79
2022/01/25 05:32:34;;;;;;;;;;;2.00;99.90;;;;;;4952377;29;19926;-80
2022/01/25 05:35:00;;;;;;;;;;;2.00;99.90;;;;;;4982056;28;19922;-80
2022/01/25 05:37:26;;;;;;;;;;;2.00;99.90;;;;;;4969393;28;19984;-79
2022/01/25 05:39:52;;;;;;;;;;;2.10;99.90;;;;;;4952205;28;19962;-79
2022/01/25 05:47:20;;;;;;;;;;;2.10;99.90;;;;;;4961942;28;20299;-79
2022/01/25 05:49:46;;;;;;;;;;;2.00;99.90;;;;;;4966266;28;19915;-79
2022/01/25 05:52:12;;;;;;;;;;;1.90;99.90;;;;;;4955363;28;20009;-80
2022/01/25 05:54:39;;;;;;;;;;;2.00;99.90;;;;;;4955182;28;20411;-80
2022/01/25 05:57:05;;;;;;;;;;;1.90;99.90;;;;;;4970559;28;19929;-79
2022/01/25 05:59:30;;;;;;;;;;;2.00;99.90;;;;;;4970228;28;20427;-79
2022/01/25 06:01:56;;;;;;;;;;;1.90;99.90;;;;;;4949301;28;19918;-79
2022/01/25 06:04:23;;;;;;;;;;;1.90;99.90;;;;;;4953966;28;19941;-80
2022/01/25 06:06:49;;;;;;;;;;;1.90;99.90;;;;;;4971421;28;20573;-79
2022/01/25 06:09:14;;;;;;;;;;;1.90;99.90;;;;;;4968125;28;19925;-80
2022/01/25 06:11:40;;;;;;;;;;;2.00;99.90;;;;;;4970321;28;19914;-79
2022/01/25 06:14:05;;;;;;;;;;;2.00;99.90;;;;;;4968089;28;19962;-80
2022/01/25 06:16:31;;;;;;;;;;;1.90;99.90;;;;;;4935224;28;19923;-79
2022/01/25 06:18:57;;;;;;;;;;;2.00;99.90;;;;;;4950764;28;19918;-80
2022/01/25 06:21:23;;;;;;;;;;;2.00;99.90;;;;;;4967246;28;19919;-80
2022/01/25 06:23:49;;;;;;;;;;;2.00;99.90;;;;;;4972435;28;19921;-79
2022/01/25 06:26:14;;;;;;;;;;;2.00;99.90;;;;;;4952090;28;19918;-80
2022/01/25 06:28:40;;;;;;;;;;;2.00;99.90;;;;;;4972136;28;19925;-79
2022/01/25 06:31:07;;;;;;;;;;;2.00;99.90;;;;;;4971954;28;19934;-80
2022/01/25 06:33:33;;;;;;;;;;;2.00;99.90;;;;;;4951622;28;19923;-79
2022/01/25 06:35:58;;;;;;;;;;;2.00;99.90;;;;;;4964382;28;20404;-80
2022/01/25 06:38:26;;;;;;;;;;;2.00;99.90;;;;;;4967844;28;19918;-79
2022/01/25 06:40:52;;;;;;;;;;;2.00;99.90;;;;;;4969591;28;19994;-80
2022/01/25 06:43:17;;;;;;;;;;;1.90;99.90;;;;;;4972169;28;20377;-80
2022/01/25 06:45:45;;;;;;;;;;;2.00;99.90;;;;;;4967534;28;19973;-80
2022/01/25 06:48:11;;;;;;;;;;;1.90;99.90;;;;;;4967850;28;19918;-80
2022/01/25 06:50:37;;;;;;;;;;;2.00;99.90;;;;;;4982485;28;20343;-80
2022/01/25 06:53:03;;;;;;;;;;;1.90;99.90;;;;;;4972050;28;20434;-80
2022/01/25 06:55:28;;;;;;;;;;;1.90;99.90;;;;;;4970627;28;20009;-80
2022/01/25 06:57:54;;;;;;;;;;;2.00;99.90;;;;;;4970651;28;19969;-79
2022/01/25 07:00:21;;;;;;;;;;;2.00;99.90;;;;;;4938608;28;20030;-79
2022/01/25 07:02:47;;;;;;;;;;;2.10;99.90;;;;;;4974462;28;19918;-79
2022/01/25 07:05:12;;;;;;;;;;;2.10;99.90;;;;;;4974593;28;20292;-79
2022/01/25 07:07:38;;;;;;;;;;;2.00;99.90;;;;;;4973013;28;19918;-80
2022/01/25 07:10:05;;;;;;;;;;;2.00;99.90;;;;;;4974896;28;19922;-79
2022/01/25 07:12:31;;;;;;;;;;;2.00;99.90;;;;;;4958020;28;20016;-79
2022/01/25 07:14:56;;;;;;;;;;;2.00;99.90;;;;;;4975568;28;20004;-79
2022/01/25 07:17:22;;;;;;;;;;;2.00;99.90;;;;;;4974924;28;20389;-79
2022/01/25 07:19:48;;;;;;;;;;;2.00;99.90;;;;;;4974195;28;19922;-79
2022/01/25 07:22:14;;;;;;;;;;;2.00;99.90;;;;;;4974414;28;19922;-80
2022/01/25 07:24:40;;;;;;;;;;;2.00;99.90;;;;;;4968345;28;20296;-79
2022/01/25 07:27:06;;;;;;;;;;;2.00;99.90;;;;;;4970345;28;19915;-79
2022/01/25 07:29:32;;;;;;;;;;;2.00;99.90;;;;;;4969067;28;20013;-79
2022/01/25 07:31:59;;;;;;;;;;;2.00;99.90;;;;;;4974861;28;20398;-78
2022/01/25 07:34:25;;;;;;;;;;;2.00;99.90;;;;;;4971432;28;19914;-80
2022/01/25 07:36:51;;;;;;;;;;;2.00;99.90;;;;;;4972688;28;19985;-79
2022/01/25 07:39:17;;;;;;;;;;;2.00;99.90;;;;;;4983941;28;19972;-79
2022/01/25 07:41:44;;;;;;;;;;;2.10;99.90;;;;;;4980968;28;19950;-79
2022/01/25 07:44:09;;;;;;;;;;;2.10;99.90;;;;;;4973173;28;19922;-80
2022/01/25 07:46:35;;;;;;;;;;;2.10;99.90;;;;;;4956722;28;19937;-80
2022/01/25 07:49:01;;;;;;;;;;;2.10;99.90;;;;;;4973176;28;20309;-79
2022/01/25 07:51:28;;;;;;;;;;;2.10;99.90;;;;;;4973482;28;19918;-80
2022/01/25 07:53:54;;;;;;;;;;;2.10;99.90;;;;;;4974548;28;20392;-79
2022/01/25 07:56:20;;;;;;;;;;;2.10;99.90;;;;;;4974386;28;19922;-79
2022/01/25 07:58:46;;;;;;;;;;;2.10;99.90;;;;;;4973072;28;20007;-80
2022/01/25 08:01:12;;;;;;;;;;;2.20;99.90;;;;;;4957315;28;20113;-80
2022/01/25 08:03:38;;;;;;;;;;;2.20;99.90;;;;;;4972801;28;20005;-80
2022/01/25 08:06:03;;;;;;;;;;;2.20;99.90;;;;;;4963033;28;19953;-80
2022/01/25 08:08:29;;;;;;;;;;;2.20;99.90;;;;;;4972861;28;20081;-79
2022/01/25 08:10:55;;;;;;;;;;;2.20;99.90;;;;;;4964685;28;19977;-79
2022/01/25 08:13:20;;;;;;;;;;;2.20;99.90;;;;;;4962120;28;20274;-79
2022/01/25 08:15:46;;;;;;;;;;;2.30;99.90;;;;;;4972844;28;19949;-79
2022/01/25 08:18:11;;;;;;;;;;;2.30;99.90;;;;;;4972701;28;20379;-79
2022/01/25 08:20:37;;;;;;;;;;;2.30;99.90;;;;;;4971024;28;19922;-79
2022/01/25 08:23:03;;;;;;;;;;;2.40;99.90;;;;;;4993827;28;19957;-79
2022/01/25 08:25:28;;;;;;;;;;;2.30;99.90;;;;;;4973280;28;20008;-79
2022/01/25 08:27:55;;;;;;;;;;;2.30;99.90;;;;;;4973143;28;19934;-80
2022/01/25 08:30:20;;;;;;;;;;;2.30;99.90;;;;;;4968819;28;20261;-79
2022/01/25 08:32:46;;;;;;;;;;;2.30;99.90;;;;;;4983340;28;20013;-81
2022/01/25 08:35:11;;;;;;;;;;;2.30;99.90;;;;;;4974092;28;19914;-80
2022/01/25 08:37:37;;;;;;;;;;;2.30;99.90;;;;;;4972665;28;20012;-79
2022/01/25 08:40:07;;;;;;;;;;;2.30;99.90;;;;;;4973268;28;19933;-81
2022/01/25 08:42:33;;;;;;;;;;;2.30;99.90;;;;;;4956158;28;20771;-80
2022/01/25 08:44:59;;;;;;;;;;;2.20;99.90;;;;;;4972515;28;19997;-80
2022/01/25 08:47:25;;;;;;;;;;;2.30;99.90;;;;;;4973518;28;19973;-80
2022/01/25 08:49:50;;;;;;;;;;;2.30;99.90;;;;;;4954289;28;19953;-79
2022/01/25 08:52:16;;;;;;;;;;;2.30;99.90;;;;;;4953324;28;19957;-79
2022/01/25 08:54:42;;;;;;;;;;;2.30;99.90;;;;;;4954471;29;19919;-79
2022/01/25 08:57:07;;;;;;;;;;;2.30;99.90;;;;;;4954707;28;19923;-79
2022/01/25 08:59:33;;;;;;;;;;;2.30;99.90;;;;;;4972254;28;19921;-79
2022/01/25 09:01:59;;;;;;;;;;;2.40;99.90;;;;;;4954470;28;19914;-80
2022/01/25 09:04:25;;;;;;;;;;;2.40;99.90;;;;;;4957755;28;20033;-80
2022/01/25 09:06:50;;;;;;;;;;;2.30;99.90;;;;;;4936704;28;20428;-79
2022/01/25 09:09:17;;;;;;;;;;;2.40;99.90;;;;;;4971898;28;19919;-79
2022/01/25 09:11:42;;;;;;;;;;;2.40;99.90;;;;;;4972045;28;19914;-79
2022/01/25 09:14:08;;;;;;;;;;;2.40;99.90;;;;;;4972161;28;19943;-80
2022/01/25 09:16:34;;;;;;;;;;;2.50;99.90;;;;;;4970756;28;20577;-80
2022/01/25 09:19:00;;;;;;;;;;;2.50;99.90;;;;;;4985985;28;20764;-80
2022/01/25 09:21:26;;;;;;;;;;;2.50;99.90;;;;;;4957049;28;19919;-80
2022/01/25 09:23:52;;;;;;;;;;;2.40;99.90;;;;;;4966371;28;19962;-80
2022/01/25 09:26:17;;;;;;;;;;;2.50;99.90;;;;;;4953603;28;19914;-80
2022/01/25 09:28:43;;;;;;;;;;;2.40;99.90;;;;;;4963938;28;20521;-81
2022/01/25 09:31:09;;;;;;;;;;;2.40;99.90;;;;;;4950952;28;20002;-80
2022/01/25 09:33:35;;;;;;;;;;;2.50;99.90;;;;;;4963983;28;20005;-79
2022/01/25 09:36:01;;;;;;;;;;;2.50;99.90;;;;;;4967442;28;19922;-79
2022/01/25 09:38:26;;;;;;;;;;;2.50;99.90;;;;;;4963238;28;19921;-79
2022/01/25 09:40:52;;;;;;;;;;;2.60;99.90;;;;;;4967239;28;19918;-79
2022/01/25 09:43:20;;;;;;;;;;;2.60;99.90;;;;;;4956548;28;19925;-79
2022/01/25 09:45:46;;;;;;;;;;;2.50;99.90;;;;;;4951542;28;20664;-79
2022/01/25 09:48:16;;;;;;;;;;;2.50;99.90;;;;;;4969080;28;20387;-79
2022/01/25 09:50:41;;;;;;;;;;;2.30;99.90;;;;;;4969386;28;19914;-78
2022/01/25 09:53:08;;;;;;;;;;;2.30;99.90;;;;;;4957765;28;19917;-79
2022/01/25 09:55:35;;;;;;;;;;;2.40;99.90;;;;;;4965841;28;20420;-79
2022/01/25 09:58:02;;;;;;;;;;;2.40;99.90;;;;;;4969395;28;19953;-79
2022/01/25 10:00:29;;;;;;;;;;;2.30;99.90;;;;;;4969405;28;19918;-80
2022/01/25 10:03:11;;;;;;;;;;;2.30;99.90;;;;;;4967613;28;19918;-80
2022/01/25 10:05:38;;;;;;;;;;;2.30;99.90;;;;;;4960001;28;20381;-79
2022/01/25 10:08:05;;;;;;;;;;;2.40;99.90;;;;;;4962659;28;19914;-79
2022/01/25 10:10:31;;;;;;;;;;;2.40;99.90;;;;;;4968647;28;19918;-80
2022/01/25 10:13:07;;;;;;;;;;;2.40;99.90;;;;;;4968352;28;20436;-80
2022/01/25 10:15:32;;;;;;;;;;;2.50;99.90;;;;;;4967388;28;19921;-81
2022/01/25 10:17:58;;;;;;;;;;;2.50;99.90;;;;;;4964713;28;20285;-80
2022/01/25 10:20:31;;;;;;;;;;;2.60;99.90;;;;;;4966977;28;20088;-80
2022/01/25 10:23:00;;;;;;;;;;;2.60;99.90;;;;;;4966950;28;19972;-82
2022/01/25 10:25:37;;;;;;;;;;;2.60;99.90;;;;;;4963112;28;20472;-81
2022/01/25 10:28:04;;;;;;;;;;;2.70;99.90;;;;;;4966028;28;19926;-80
2022/01/25 10:30:36;;;;;;;;;;;2.80;99.90;;;;;;4954994;28;19914;-79
2022/01/25 10:33:02;;;;;;;;;;;2.80;99.90;;;;;;4969322;28;19928;-79
2022/01/25 10:35:28;;;;;;;;;;;2.90;99.90;;;;;;4968580;28;20393;-79
2022/01/25 10:37:54;;;;;;;;;;;2.80;99.90;;;;;;4974149;28;19922;-79
2022/01/25 10:40:34;;;;;;;;;;;2.80;99.90;;;;;;4973109;28;19918;-80
2022/01/25 10:43:00;;;;;;;;;;;2.60;99.90;;;;;;4968546;28;20004;-80
2022/01/25 10:45:25;;;;;;;;;;;2.60;99.90;;;;;;4957183;28;20479;-80
2022/01/25 10:47:52;;;;;;;;;;;2.60;99.90;;;;;;4961589;28;19926;-79
2022/01/25 10:50:20;;;;;;;;;;;2.60;99.90;;;;;;4971084;28;19914;-79
2022/01/25 10:52:46;;;;;;;;;;;2.60;99.90;;;;;;4968749;28;19926;-80
2022/01/25 10:55:12;;;;;;;;;;;2.60;99.90;;;;;;4964738;28;20533;-80
2022/01/25 10:57:38;;;;;;;;;;;2.60;99.90;;;;;;4952305;28;19922;-80
2022/01/25 11:00:09;;;;;;;;;;;2.60;99.90;;;;;;4959113;28;21001;-79
2022/01/25 11:02:36;;;;;;;;;;;2.60;99.90;;;;;;4967411;28;20261;-81
2022/01/25 11:05:06;;;;;;;;;;;2.70;99.90;;;;;;4972710;28;19910;-81
2022/01/25 11:07:38;;;;;;;;;;;2.70;99.90;;;;;;4971921;28;19965;-82
2022/01/25 11:10:04;;;;;;;;;;;2.70;99.90;;;;;;4968760;28;20102;-81
2022/01/25 11:12:36;;;;;;;;;;;2.80;99.90;;;;;;4952804;29;19919;-81
2022/01/25 11:15:03;;;;;;;;;;;2.70;99.90;;;;;;4953479;29;19918;-79
2022/01/25 11:17:30;;;;;;;;;;;2.80;99.90;;;;;;4959889;28;20353;-81
2022/01/25 11:19:56;;;;;;;;;;;2.70;99.90;;;;;;4972499;28;19929;-80
2022/01/25 11:22:23;;;;;;;;;;;2.70;99.90;;;;;;4963678;28;19914;-80
2022/01/25 11:24:50;;;;;;;;;;;2.70;99.90;;;;;;4933054;28;19919;-80
2022/01/25 11:27:16;;;;;;;;;;;2.80;99.90;;;;;;4986401;28;19965;-81
2022/01/25 11:29:43;;;;;;;;;;;2.80;99.90;;;;;;4953960;28;20396;-81
2022/01/25 11:32:10;;;;;;;;;;;2.80;99.90;;;;;;4953457;28;19914;-81
2022/01/25 11:34:38;;;;;;;;;;;2.80;99.90;;;;;;4954796;28;19918;-80
2022/01/25 11:37:06;;;;;;;;;;;2.80;99.90;;;;;;4981049;28;20437;-80
2022/01/25 11:39:32;;;;;;;;;;;2.80;99.90;;;;;;4955555;28;19952;-81
2022/01/25 11:42:05;;;;;;;;;;;2.80;99.90;;;;;;4970471;28;19914;-80
2022/01/25 11:44:31;;;;;;;;;;;2.80;99.90;;;;;;4964272;28;19914;-80
2022/01/25 11:46:58;;;;;;;;;;;2.80;99.90;;;;;;4952389;28;20304;-80
2022/01/25 11:49:24;;;;;;;;;;;2.80;99.90;;;;;;4962696;28;19925;-80
2022/01/25 11:52:05;;;;;;;;;;;2.80;99.90;;;;;;4972764;28;20128;-81
2022/01/25 11:54:31;;;;;;;;;;;2.90;99.90;;;;;;4955180;28;20450;-79
2022/01/25 11:57:14;;;;;;;;;;;2.80;99.90;;;;;;4963450;28;20025;-80
2022/01/25 11:59:40;;;;;;;;;;;2.90;99.90;;;;;;4955285;28;20432;-80
2022/01/25 12:02:05;;;;;;;;;;;2.80;99.90;;;;;;4970181;28;20372;-79
2022/01/25 12:04:32;;;;;;;;;;;2.80;99.90;;;;;;4969586;28;19914;-81
2022/01/25 12:07:08;;;;;;;;;;;2.90;99.90;;;;;;4965722;28;19914;-81
2022/01/25 12:09:42;;;;;;;;;;;2.80;99.90;;;;;;4968572;28;20484;-81
2022/01/25 12:12:11;;;;;;;;;;;2.90;99.90;;;;;;4971623;28;19926;-80
2022/01/25 12:14:41;;;;;;;;;;;2.90;99.90;;;;;;4950753;28;19914;-80
2022/01/25 12:17:23;;;;;;;;;;;2.90;99.90;;;;;;4967231;28;19923;-80
2022/01/25 12:19:50;;;;;;;;;;;2.90;99.90;;;;;;4971099;28;19918;-80
2022/01/25 12:22:16;;;;;;;;;;;2.90;99.90;;;;;;4964293;28;19914;-79
2022/01/25 12:24:42;;;;;;;;;;;3.00;99.90;;;;;;4971455;28;19918;-79
2022/01/25 12:27:18;;;;;;;;;;;3.00;99.90;;;;;;4970020;28;19914;-80
2022/01/25 12:29:44;;;;;;;;;;;3.00;99.90;;;;;;4967659;28;19921;-80
2022/01/25 12:32:29;;;;;;;;;;;3.10;99.90;;;;;;4970264;28;19921;-80
2022/01/25 12:35:07;;;;;;;;;;;3.10;99.90;;;;;;4971970;28;19918;-79
2022/01/25 12:37:45;;;;;;;;;;;3.10;99.90;;;;;;4967550;28;19946;-80
2022/01/25 12:40:26;;;;;;;;;;;3.10;99.90;;;;;;4963481;28;20002;-79
2022/01/25 12:42:53;;;;;;;;;;;3.00;99.90;;;;;;4971839;28;20389;-79
2022/01/25 12:45:19;;;;;;;;;;;3.00;99.90;;;;;;4970135;28;19960;-81
2022/01/25 12:48:02;;;;;;;;;;;3.00;99.90;;;;;;4971452;28;20017;-79
2022/01/25 12:50:28;;;;;;;;;;;3.00;99.90;;;;;;4970221;28;19922;-80
2022/01/25 12:52:54;;;;;;;;;;;3.00;99.90;;;;;;4972614;28;19910;-80
2022/01/25 12:55:25;;;;;;;;;;;3.00;99.90;;;;;;4972569;28;19914;-80
2022/01/25 12:57:51;;;;;;;;;;;3.00;99.90;;;;;;4972712;28;20365;-81
2022/01/25 13:00:17;;;;;;;;;;;3.00;99.90;;;;;;4970367;28;19980;-80
2022/01/25 13:02:43;;;;;;;;;;;3.00;99.90;;;;;;4954947;29;19921;-79
2022/01/25 13:05:19;;;;;;;;;;;3.00;99.90;;;;;;4954237;29;19922;-80
2022/01/25 13:07:45;;;;;;;;;;;2.90;99.90;;;;;;4955958;28;19922;-80
2022/01/25 13:10:22;;;;;;;;;;;2.90;99.90;;;;;;4973620;28;20010;-80
2022/01/25 13:12:56;;;;;;;;;;;2.90;99.90;;;;;;4953345;29;19921;-80
2022/01/25 13:18:13;;;;;;;;;;;2.80;99.90;;;;;;4970114;28;19929;-80
2022/01/25 13:20:40;;;;;;;;;;;2.80;99.90;;;;;;4974315;28;19918;-80
2022/01/25 13:23:07;;;;;;;;;;;2.80;99.90;;;;;;4976625;28;20012;-79
2022/01/25 13:25:53;;;;;;;;;;;2.80;99.90;;;;;;4973501;28;19915;-79
2022/01/25 13:31:05;;;;;;;;;;;2.80;99.90;;;;;;4972349;28;19969;-81
2022/01/25 13:33:31;;;;;;;;;;;2.80;99.90;;;;;;4974728;28;20327;-80
2022/01/25 13:35:57;;;;;;;;;;;2.80;99.90;;;;;;4970964;28;19922;-80
2022/01/25 13:38:24;;;;;;;;;;;2.80;99.90;;;;;;4968978;28;19926;-79
2022/01/25 13:45:53;;;;;;;;;;;2.80;99.90;;;;;;4966377;28;19921;-80
2022/01/25 13:48:21;;;;;;;;;;;2.80;99.90;;;;;;4970212;28;19917;-79
2022/01/25 13:50:51;;;;;;;;;;;2.80;99.90;;;;;;4979090;28;19925;-80
2022/01/25 13:53:17;;;;;;;;;;;2.80;99.90;;;;;;4979156;28;19984;-80
2022/01/25 13:55:47;;;;;;;;;;;2.80;99.90;;;;;;4972552;28;19911;-80
2022/01/25 13:58:25;;;;;;;;;;;2.80;99.90;;;;;;4956739;28;19936;-80
2022/01/25 14:00:50;;;;;;;;;;;2.80;99.90;;;;;;4952608;28;19965;-80
2022/01/25 14:03:16;;;;;;;;;;;2.80;99.90;;;;;;4933979;29;20008;-79
2022/01/25 14:05:42;;;;;;;;;;;2.70;99.90;;;;;;4949462;29;19925;-80
2022/01/25 14:08:08;;;;;;;;;;;2.80;99.90;;;;;;4965904;28;20404;-81
2022/01/25 14:10:34;;;;;;;;;;;2.80;99.90;;;;;;4966960;28;19997;-80
2022/01/25 14:21:54;;;;;;;;;;;2.60;99.90;;;;;;4968468;28;19918;-79
2022/01/25 14:24:28;;;;;;;;;;;2.60;99.90;;;;;;4969783;28;20301;-80
2022/01/25 14:26:53;;;;;;;;;;;2.60;99.90;;;;;;4964543;28;19937;-78
2022/01/25 14:29:22;;;;;;;;;;;2.60;99.90;;;;;;4968746;28;20365;-78
2022/01/25 14:31:48;;;;;;;;;;;2.60;99.90;;;;;;4968985;28;20420;-81
2022/01/25 14:34:17;;;;;;;;;;;2.60;99.90;;;;;;4955100;28;19919;-79
2022/01/25 14:36:46;;;;;;;;;;;2.60;99.90;;;;;;4950091;28;20020;-81
2022/01/25 14:39:13;;;;;;;;;;;2.60;99.90;;;;;;4968201;28;19953;-81
2022/01/25 14:41:38;;;;;;;;;;;2.60;99.90;;;;;;4950645;28;19918;-80
2022/01/25 14:44:06;;;;;;;;;;;2.60;99.90;;;;;;4969179;28;19925;-80
2022/01/25 14:46:37;;;;;;;;;;;2.60;99.90;;;;;;4970149;28;20432;-80
2022/01/25 14:49:06;;;;;;;;;;;2.60;99.90;;;;;;4964365;28;19919;-82
2022/01/25 14:51:34;;;;;;;;;;;2.60;99.90;;;;;;4969946;28;19969;-80
2022/01/25 14:54:00;;;;;;;;;;;2.50;99.90;;;;;;4969176;28;20388;-80
2022/01/25 14:56:33;;;;;;;;;;;2.50;99.90;;;;;;4950905;28;19914;-81
2022/01/25 15:01:47;;;;;;;;;;;2.50;99.90;;;;;;4967893;28;20250;-80
2022/01/25 15:04:13;;;;;;;;;;;2.60;99.90;;;;;;4960982;28;19925;-79
2022/01/25 15:06:38;;;;;;;;;;;2.50;99.90;;;;;;4948918;28;19933;-80
2022/01/25 15:09:04;;;;;;;;;;;2.50;99.90;;;;;;4967511;28;19941;-81
2022/01/25 15:11:32;;;;;;;;;;;2.50;99.90;;;;;;4969634;28;19922;-80
2022/01/25 15:14:05;;;;;;;;;;;2.50;99.90;;;;;;4967591;28;19926;-81
2022/01/25 15:16:31;;;;;;;;;;;2.50;99.90;;;;;;4968672;28;19934;-80
2022/01/25 15:18:56;;;;;;;;;;;2.50;99.90;;;;;;4968945;28;19922;-80
2022/01/25 15:21:22;;;;;;;;;;;2.50;99.90;;;;;;4969467;28;20016;-81
2022/01/25 15:23:49;;;;;;;;;;;2.40;99.90;;;;;;4974515;28;19914;-80
2022/01/25 15:26:17;;;;;;;;;;;2.40;99.90;;;;;;4946026;29;20507;-81
2022/01/25 15:28:46;;;;;;;;;;;2.40;99.90;;;;;;4954939;29;20382;-80
2022/01/25 15:31:13;;;;;;;;;;;2.40;99.90;;;;;;4958131;28;19914;-80
2022/01/25 15:33:39;;;;;;;;;;;2.30;99.90;;;;;;4974838;28;20392;-80
2022/01/25 15:36:06;;;;;;;;;;;2.40;99.90;;;;;;4958105;28;19922;-81
2022/01/25 15:38:32;;;;;;;;;;;2.30;99.90;;;;;;4974221;28;19964;-81
2022/01/25 15:40:59;;;;;;;;;;;2.30;99.90;;;;;;4975438;28;19918;-81
2022/01/25 15:43:30;;;;;;;;;;;2.30;99.90;;;;;;4973917;28;19918;-81
2022/01/25 15:46:04;;;;;;;;;;;2.20;99.90;;;;;;4973931;28;20052;-81
2022/01/25 15:48:31;;;;;;;;;;;2.20;99.90;;;;;;4958991;28;20024;-81
2022/01/25 15:50:56;;;;;;;;;;;2.20;99.90;;;;;;4975166;28;19925;-80
2022/01/25 15:53:22;;;;;;;;;;;2.20;99.90;;;;;;4975155;28;20536;-80
2022/01/25 15:55:49;;;;;;;;;;;2.20;99.90;;;;;;4966709;28;19921;-81
2022/01/25 15:58:14;;;;;;;;;;;2.20;99.90;;;;;;4966467;28;19914;-81
2022/01/25 16:00:46;;;;;;;;;;;2.10;99.90;;;;;;4973658;28;19914;-80
2022/01/25 16:03:16;;;;;;;;;;;2.10;99.90;;;;;;4974687;28;20403;-80
2022/01/25 16:05:42;;;;;;;;;;;2.10;99.90;;;;;;4975559;28;19918;-80
2022/01/25 16:08:08;;;;;;;;;;;2.10;99.90;;;;;;4955332;28;19919;-81
2022/01/25 16:10:35;;;;;;;;;;;2.10;99.90;;;;;;4965474;28;19914;-81
2022/01/25 16:13:01;;;;;;;;;;;2.10;99.90;;;;;;4977997;28;20451;-80
2022/01/25 16:15:26;;;;;;;;;;;2.10;99.90;;;;;;4979033;28;19957;-80
2022/01/25 16:17:55;;;;;;;;;;;2.10;99.90;;;;;;4950962;28;19926;-81
2022/01/25 16:20:20;;;;;;;;;;;2.10;99.90;;;;;;4967111;28;20409;-80
2022/01/25 16:22:46;;;;;;;;;;;2.10;99.90;;;;;;4972880;28;19915;-81
2022/01/25 16:25:11;;;;;;;;;;;2.10;99.90;;;;;;4955131;28;19922;-80
2022/01/25 16:27:37;;;;;;;;;;;2.10;99.90;;;;;;4970037;28;19949;-80
2022/01/25 16:30:04;;;;;;;;;;;2.10;99.90;;;;;;4935948;29;20293;-80
2022/01/25 16:32:34;;;;;;;;;;;2.10;99.90;;;;;;4962684;28;20005;-79
2022/01/25 16:35:00;;;;;;;;;;;2.00;99.90;;;;;;4972630;28;19918;-80
2022/01/25 16:37:26;;;;;;;;;;;2.00;99.90;;;;;;4971825;28;19921;-79
2022/01/25 16:39:52;;;;;;;;;;;2.00;99.90;;;;;;4986597;28;19972;-79